createdAt,value
2022-11-15T00:01:02.996Z,97847.83
2022-11-15T00:03:34.208Z,97847.42
2022-11-15T00:06:07.025Z,97842.25
2022-11-15T00:08:38.290Z,97841.89
2022-11-15T00:11:12.137Z,97838.67
2022-11-15T00:13:43.339Z,97833.56
2022-11-15T00:16:14.255Z,97825.95
2022-11-15T00:18:50.415Z,97825.36
2022-11-15T00:21:21.804Z,97823.36
2022-11-15T00:23:52.920Z,97824.41
2022-11-15T00:26:23.822Z,97822.20
2022-11-15T00:28:56.612Z,97827.42
2022-11-15T00:31:27.570Z,97824.74
2022-11-15T00:33:58.331Z,97820.42
2022-11-15T00:36:29.103Z,97819.23
2022-11-15T00:39:00.103Z,97821.92
2022-11-15T00:41:31.218Z,97820.33
2022-11-15T00:44:02.232Z,97822.36
2022-11-15T00:46:32.979Z,97825.35
2022-11-15T00:49:04.246Z,97821.10
2022-11-15T00:51:35.225Z,97820.70
2022-11-15T00:54:08.835Z,97819.74
2022-11-15T00:56:39.983Z,97817.40
2022-11-15T00:59:10.981Z,97820.46
2022-11-15T01:01:41.746Z,97817.52
2022-11-15T01:04:12.894Z,97814.38
2022-11-15T01:06:44.188Z,97813.70
2022-11-15T01:09:15.681Z,97812.49
2022-11-15T01:11:46.969Z,97814.70
2022-11-15T01:14:22.797Z,97812.59
2022-11-15T01:16:56.252Z,97814.70
2022-11-15T01:19:27.347Z,97811.09
2022-11-15T01:21:58.195Z,97803.85
2022-11-15T01:24:29.138Z,97803.36
2022-11-15T01:27:00.329Z,97809.83
2022-11-15T01:29:30.202Z,97808.23
2022-11-15T01:32:01.046Z,97804.04
2022-11-15T01:34:32.180Z,97802.52
2022-11-15T01:37:03.231Z,97801.08
2022-11-15T01:39:32.873Z,97798.25
2022-11-15T01:42:03.779Z,97794.25
2022-11-15T01:44:43.946Z,97788.70
2022-11-15T01:47:18.492Z,97781.48
2022-11-15T01:49:56.456Z,97776.73
2022-11-15T01:52:30.144Z,97772.66
2022-11-15T01:55:06.996Z,97773.30
2022-11-15T01:57:38.203Z,97762.19
2022-11-15T02:00:11.932Z,97761.43
2022-11-15T02:02:42.833Z,97758.39
2022-11-15T02:05:14.032Z,97761.43
2022-11-15T02:07:45.264Z,97758.02
2022-11-15T02:10:20.109Z,97754.78
2022-11-15T02:12:52.645Z,97745.54
2022-11-15T02:15:26.460Z,97746.25
2022-11-15T02:18:13.591Z,97750.23
2022-11-15T02:20:54.143Z,97745.25
2022-11-15T02:23:54.819Z,97736.92
2022-11-15T02:27:14.500Z,97740.56
2022-11-15T02:30:05.873Z,97732.04
2022-11-15T02:32:44.034Z,97730.92
2022-11-15T02:35:26.235Z,97730.48
2022-11-15T02:38:01.854Z,97726.60
2022-11-15T02:40:41.271Z,97728.02
2022-11-15T02:43:34.046Z,97722.90
2022-11-15T02:46:10.899Z,97724.64
2022-11-15T02:48:43.747Z,97723.89
2022-11-15T02:51:15.786Z,97716.71
2022-11-15T02:53:46.788Z,97712.73
2022-11-15T02:56:17.749Z,97719.41
2022-11-15T02:59:24.902Z,97719.14
2022-11-15T03:02:12.369Z,97722.34
2022-11-15T03:04:54.175Z,97720.16
2022-11-15T03:07:31.921Z,97715.83
2022-11-15T03:10:08.783Z,97715.70
2022-11-15T03:12:49.086Z,97713.30
2022-11-15T03:15:23.626Z,97709.80
2022-11-15T03:17:59.914Z,97707.52
2022-11-15T03:20:33.583Z,97709.76
2022-11-15T03:23:09.071Z,97707.54
2022-11-15T03:25:44.106Z,97706.35
2022-11-15T03:28:19.806Z,97706.43
2022-11-15T03:30:52.278Z,97708.30
2022-11-15T03:33:25.084Z,97707.81
2022-11-15T03:35:57.166Z,97705.06
2022-11-15T03:38:32.931Z,97704.02
2022-11-15T03:41:07.282Z,97702.41
2022-11-15T03:43:45.101Z,97705.39
2022-11-15T03:46:22.121Z,97707.48
2022-11-15T03:48:56.427Z,97705.42
2022-11-15T03:51:27.590Z,97702.05
2022-11-15T03:53:58.575Z,97698.69
2022-11-15T03:56:29.626Z,97694.66
2022-11-15T03:59:00.672Z,97691.82
2022-11-15T04:01:31.653Z,97688.20
2022-11-15T04:04:02.739Z,97688.40
2022-11-15T04:06:33.894Z,97684.61
2022-11-15T04:09:05.340Z,97685.38
2022-11-15T04:11:36.350Z,97681.22
2022-11-15T04:14:07.319Z,97674.80
2022-11-15T04:16:43.596Z,97669.33
2022-11-15T04:19:32.364Z,97665.41
2022-11-15T04:22:20.723Z,97660.60
2022-11-15T04:24:51.752Z,97655.48
2022-11-15T04:27:22.856Z,97646.92
2022-11-15T04:29:53.816Z,97643.20
2022-11-15T04:32:24.878Z,97638.85
2022-11-15T04:34:55.806Z,97636.78
2022-11-15T04:37:26.604Z,97637.48
2022-11-15T04:39:57.594Z,97636.42
2022-11-15T04:42:28.505Z,97634.41
2022-11-15T04:44:59.490Z,97636.25
2022-11-15T04:47:30.575Z,97640.60
2022-11-15T04:50:01.836Z,97642.44
2022-11-15T04:52:32.820Z,97648.07
2022-11-15T04:55:07.932Z,97652.64
2022-11-15T04:57:39.847Z,97654.33
2022-11-15T05:00:14.201Z,97655.70
2022-11-15T05:03:22.647Z,97656.85
2022-11-15T05:05:53.660Z,97656.33
2022-11-15T05:08:24.475Z,97658.05
2022-11-15T05:10:55.503Z,97658.98
2022-11-15T05:13:26.359Z,97654.59
2022-11-15T05:15:57.219Z,97651.30
2022-11-15T05:18:28.702Z,97646.53
2022-11-15T05:21:04.838Z,97646.39
2022-11-15T05:23:35.853Z,97649.71
2022-11-15T05:26:09.475Z,97648.38
2022-11-15T05:28:40.986Z,97652.23
2022-11-15T05:31:13.030Z,97655.39
2022-11-15T05:33:45.419Z,97657.15
2022-11-15T05:36:21.156Z,97656.23
2022-11-15T05:39:10.572Z,97653.20
2022-11-15T05:41:45.824Z,97653.82
2022-11-15T05:44:19.929Z,97651.70
2022-11-15T05:46:54.631Z,97649.84
2022-11-15T05:49:31.493Z,97652.95
2022-11-15T05:52:05.532Z,97650.26
2022-11-15T05:54:37.994Z,97648.68
2022-11-15T05:57:09.436Z,97648.52
2022-11-15T05:59:41.942Z,97644.58
2022-11-15T06:02:13.554Z,97644.36
2022-11-15T06:04:44.356Z,97645.64
2022-11-15T06:07:15.169Z,97649.16
2022-11-15T06:09:46.020Z,97651.54
2022-11-15T06:12:17.086Z,97653.71
2022-11-15T06:14:47.951Z,97653.80
2022-11-15T06:17:18.700Z,97653.50
2022-11-15T06:19:49.610Z,97658.15
2022-11-15T06:22:20.621Z,97657.30
2022-11-15T06:24:51.431Z,97652.27
2022-11-15T06:27:22.274Z,97655.45
2022-11-15T06:29:53.399Z,97656.79
2022-11-15T06:32:24.955Z,97647.80
2022-11-15T06:34:55.803Z,97650.88
2022-11-15T06:37:26.845Z,97651.30
2022-11-15T06:39:57.898Z,97654.87
2022-11-15T06:42:28.770Z,97661.40
2022-11-15T06:44:59.732Z,97666.09
2022-11-15T06:47:30.618Z,97667.50
2022-11-15T06:50:01.697Z,97667.24
2022-11-15T06:52:34.225Z,97666.45
2022-11-15T06:55:05.642Z,97667.81
2022-11-15T06:57:36.587Z,97664.34
2022-11-15T07:00:09.009Z,97659.55
2022-11-15T07:02:40.283Z,97657.34
2022-11-15T07:05:12.331Z,97657.19
2022-11-15T07:07:43.365Z,97658.52
2022-11-15T07:10:13.040Z,97659.55
2022-11-15T07:12:43.895Z,97659.73
2022-11-15T07:15:14.876Z,97656.73
2022-11-15T07:17:46.022Z,97656.50
2022-11-15T07:20:18.389Z,97649.70
2022-11-15T07:22:49.766Z,97645.16
2022-11-15T07:25:21.027Z,97646.79
2022-11-15T07:27:59.378Z,97650.07
2022-11-15T07:30:31.233Z,97653.68
2022-11-15T07:33:03.553Z,97658.88
2022-11-15T07:35:34.497Z,97656.96
2022-11-15T07:38:06.422Z,97660.93
2022-11-15T07:40:37.420Z,97660.24
2022-11-15T07:43:12.130Z,97659.17
2022-11-15T07:45:46.256Z,97659.63
2022-11-15T07:48:17.269Z,97652.23
2022-11-15T07:50:48.716Z,97655.83
2022-11-15T07:53:19.757Z,97656.48
2022-11-15T07:55:50.490Z,97657.13
2022-11-15T07:58:21.678Z,97654.80
2022-11-15T08:00:52.610Z,97655.73
2022-11-15T08:03:23.538Z,97654.61
2022-11-15T08:05:55.375Z,97649.65
2022-11-15T08:08:26.616Z,97645.23
2022-11-15T08:10:59.194Z,97641.85
2022-11-15T08:13:30.249Z,97641.17
2022-11-15T08:16:03.897Z,97636.52
2022-11-15T08:18:34.908Z,97639.53
2022-11-15T08:21:06.493Z,97634.49
2022-11-15T08:23:37.908Z,97632.21
2022-11-15T08:26:09.078Z,97631.66
2022-11-15T08:28:40.071Z,97632.27
2022-11-15T08:31:17.662Z,97635.40
2022-11-15T08:33:49.069Z,97635.73
2022-11-15T08:36:20.423Z,97631.39
2022-11-15T08:38:49.674Z,97626.34
2022-11-15T08:41:26.991Z,97620.40
2022-11-15T08:43:57.842Z,97616.17
2022-11-15T08:46:28.834Z,97617.20
2022-11-15T08:48:58.797Z,97613.23
2022-11-15T08:51:29.753Z,97609.48
2022-11-15T08:54:00.860Z,97611.33
2022-11-15T08:56:31.865Z,97609.20
2022-11-15T08:59:02.888Z,97604.71
2022-11-15T09:01:36.735Z,97607.30
2022-11-15T09:04:07.937Z,97604.91
2022-11-15T09:06:43.082Z,97603.17
2022-11-15T09:09:14.553Z,97597.64
2022-11-15T09:11:45.435Z,97601.64
2022-11-15T09:14:17.624Z,97601.38
2022-11-15T09:16:48.534Z,97597.72
2022-11-15T09:19:19.830Z,97600.18
2022-11-15T09:21:50.944Z,97596.59
2022-11-15T09:24:22.186Z,97592.65
2022-11-15T09:26:53.630Z,97597.40
2022-11-15T09:29:24.493Z,97595.85
2022-11-15T09:31:56.977Z,97595.03
2022-11-15T09:34:28.089Z,97591.06
2022-11-15T09:36:59.019Z,97591.48
2022-11-15T09:39:28.562Z,97586.13
2022-11-15T09:42:32.644Z,97586.91
2022-11-15T09:45:17.119Z,97579.81
2022-11-15T09:48:02.199Z,97584.64
2022-11-15T09:50:38.954Z,97583.61
2022-11-15T09:53:15.784Z,97579.38
2022-11-15T09:56:02.520Z,97577.72
2022-11-15T09:58:42.170Z,97577.32
2022-11-15T10:01:22.105Z,97576.88
2022-11-15T10:03:53.424Z,97571.69
2022-11-15T10:06:27.706Z,97570.94
2022-11-15T10:09:03.752Z,97567.92
2022-11-15T10:11:38.965Z,97566.36
2022-11-15T10:14:15.890Z,97565.33
2022-11-15T10:17:13.608Z,97566.63
2022-11-15T10:19:54.866Z,97563.02
2022-11-15T10:22:32.075Z,97562.23
2022-11-15T10:25:18.356Z,97568.16
2022-11-15T10:27:55.806Z,97558.94
2022-11-15T10:30:32.674Z,97552.54
2022-11-15T10:33:18.512Z,97546.05
2022-11-15T10:35:49.400Z,97541.27
2022-11-15T10:38:20.183Z,97537.45
2022-11-15T10:41:08.238Z,97526.72
2022-11-15T10:43:39.499Z,97521.05
2022-11-15T10:46:45.510Z,97517.31
2022-11-15T10:49:19.146Z,97513.94
2022-11-15T10:51:53.484Z,97514.87
2022-11-15T10:54:29.687Z,97510.77
2022-11-15T10:57:07.065Z,97512.83
2022-11-15T10:59:39.385Z,97511.81
2022-11-15T11:02:30.319Z,97510.52
2022-11-15T11:05:02.268Z,97505.48
2022-11-15T11:07:35.880Z,97507.75
2022-11-15T11:10:49.941Z,97503.44
2022-11-15T11:13:24.042Z,97499.05
2022-11-15T11:16:00.254Z,97496.95
2022-11-15T11:18:37.002Z,97493.98
2022-11-15T11:21:13.681Z,97487.69
2022-11-15T11:23:54.075Z,97486.05
2022-11-15T11:26:42.901Z,97481.73
2022-11-15T11:29:28.402Z,97480.83
2022-11-15T11:32:05.335Z,97480.13
2022-11-15T11:34:49.673Z,97473.94
2022-11-15T11:37:33.108Z,97468.30
2022-11-15T11:40:16.483Z,97466.38
2022-11-15T11:43:00.244Z,97460.88
2022-11-15T11:45:50.893Z,97461.13
2022-11-15T11:48:41.291Z,97458.73
2022-11-15T11:51:18.766Z,97454.34
2022-11-15T11:53:57.087Z,97444.00
2022-11-15T11:56:31.214Z,97439.98
2022-11-15T11:59:21.388Z,97437.96
2022-11-15T12:01:52.486Z,97437.50
2022-11-15T12:04:31.509Z,97437.34
2022-11-15T12:07:07.816Z,97433.64
2022-11-15T12:09:43.671Z,97426.11
2022-11-15T12:12:25.342Z,97426.80
2022-11-15T12:14:59.711Z,97420.81
2022-11-15T12:17:37.317Z,97419.39
2022-11-15T12:20:20.716Z,97412.99
2022-11-15T12:22:58.109Z,97409.33
2022-11-15T12:25:35.603Z,97404.59
2022-11-15T12:28:17.744Z,97400.70
2022-11-15T12:30:53.151Z,97401.77
2022-11-15T12:33:44.741Z,97397.96
2022-11-15T12:36:36.785Z,97396.86
2022-11-15T12:39:09.948Z,97394.71
2022-11-15T12:41:42.357Z,97394.48
2022-11-15T12:44:34.951Z,97391.00
2022-11-15T12:47:24.577Z,97384.96
2022-11-15T12:49:55.877Z,97382.45
2022-11-15T12:52:27.263Z,97381.04
2022-11-15T12:55:06.279Z,97379.09
2022-11-15T12:57:42.729Z,97370.41
2022-11-15T13:00:41.129Z,97367.21
2022-11-15T13:03:30.141Z,97367.54
2022-11-15T13:06:27.769Z,97367.74
2022-11-15T13:08:58.682Z,97365.16
2022-11-15T13:11:50.765Z,97363.30
2022-11-15T13:14:46.670Z,97359.05
2022-11-15T13:17:38.850Z,97356.57
2022-11-15T13:20:24.532Z,97351.76
2022-11-15T13:23:03.327Z,97353.56
2022-11-15T13:26:05.771Z,97346.88
2022-11-15T13:28:39.095Z,97344.47
2022-11-15T13:31:24.932Z,97342.50
2022-11-15T13:33:58.326Z,97338.59
2022-11-15T13:36:34.179Z,97337.40
2022-11-15T13:39:08.137Z,97331.62
2022-11-15T13:41:47.456Z,97323.48
2022-11-15T13:44:26.059Z,97319.06
2022-11-15T13:47:08.503Z,97317.55
2022-11-15T13:49:39.381Z,97311.00
2022-11-15T13:52:09.722Z,97312.79
2022-11-15T13:54:45.633Z,97308.86
2022-11-15T13:57:21.420Z,97306.73
2022-11-15T13:59:55.072Z,97307.92
2022-11-15T14:02:32.267Z,97304.79
2022-11-15T14:05:13.925Z,97303.55
2022-11-15T14:07:57.414Z,97300.56
2022-11-15T14:10:34.302Z,97295.66
2022-11-15T14:13:06.199Z,97291.88
2022-11-15T14:15:38.971Z,97282.71
2022-11-15T14:18:34.887Z,97280.41
2022-11-15T14:21:10.754Z,97278.16
2022-11-15T14:23:44.271Z,97279.17
2022-11-15T14:26:32.386Z,97276.21
2022-11-15T14:29:26.569Z,97270.63
2022-11-15T14:32:08.446Z,97267.57
2022-11-15T14:34:39.434Z,97263.63
2022-11-15T14:37:18.802Z,97261.19
2022-11-15T14:39:58.705Z,97254.59
2022-11-15T14:42:32.013Z,97254.89
2022-11-15T14:45:04.215Z,97253.58
2022-11-15T14:47:35.342Z,97249.15
2022-11-15T14:50:07.639Z,97244.11
2022-11-15T14:52:38.495Z,97243.33
2022-11-15T14:55:19.231Z,97239.27
2022-11-15T14:57:50.359Z,97243.27
2022-11-15T15:00:22.640Z,97239.35
2022-11-15T15:02:56.112Z,97244.02
2022-11-15T15:05:34.045Z,97243.19
2022-11-15T15:08:06.406Z,97243.55
2022-11-15T15:10:40.935Z,97246.02
2022-11-15T15:13:19.960Z,97242.10
2022-11-15T15:15:52.600Z,97239.01
2022-11-15T15:18:23.812Z,97237.32
2022-11-15T15:21:01.096Z,97237.27
2022-11-15T15:23:32.442Z,97235.52
2022-11-15T15:26:01.746Z,97232.50
2022-11-15T15:28:34.896Z,97229.29
2022-11-15T15:31:08.496Z,97231.23
2022-11-15T15:33:39.872Z,97233.52
2022-11-15T15:36:13.111Z,97235.17
2022-11-15T15:38:44.136Z,97233.92
2022-11-15T15:41:16.418Z,97226.77
2022-11-15T15:43:48.491Z,97225.54
2022-11-15T15:46:20.753Z,97226.66
2022-11-15T15:48:51.841Z,97227.21
2022-11-15T15:51:22.837Z,97224.29
2022-11-15T15:53:53.843Z,97220.55
2022-11-15T15:56:25.050Z,97217.98
2022-11-15T15:58:56.555Z,97217.02
2022-11-15T16:01:27.852Z,97218.11
2022-11-15T16:03:58.855Z,97217.25
2022-11-15T16:06:45.173Z,97218.88
2022-11-15T16:09:18.720Z,97220.61
2022-11-15T16:11:50.535Z,97218.97
2022-11-15T16:14:21.665Z,97217.27
2022-11-15T16:16:51.004Z,97215.50
2022-11-15T16:19:22.012Z,97215.19
2022-11-15T16:21:53.988Z,97212.14
2022-11-15T16:24:24.952Z,97209.75
2022-11-15T16:26:55.938Z,97205.89
2022-11-15T16:29:27.602Z,97200.61
2022-11-15T16:31:58.902Z,97201.11
2022-11-15T16:34:32.972Z,97204.27
2022-11-15T16:37:05.869Z,97209.69
2022-11-15T16:39:35.447Z,97207.63
2022-11-15T16:42:06.545Z,97199.13
2022-11-15T16:44:37.549Z,97193.44
2022-11-15T16:47:14.033Z,97191.65
2022-11-15T16:49:46.420Z,97188.78
2022-11-15T16:52:21.329Z,97188.63
2022-11-15T16:54:53.061Z,97190.41
2022-11-15T16:57:23.898Z,97183.79
2022-11-15T16:59:55.141Z,97174.21
2022-11-15T17:02:26.049Z,97175.20
2022-11-15T17:04:55.458Z,97168.77
2022-11-15T17:07:26.546Z,97165.96
2022-11-15T17:09:57.519Z,97157.86
2022-11-15T17:12:28.719Z,97157.16
2022-11-15T17:14:59.833Z,97153.98
2022-11-15T17:17:31.182Z,97154.48
2022-11-15T17:20:05.176Z,97154.66
2022-11-15T17:22:36.350Z,97156.05
2022-11-15T17:25:06.267Z,97151.27
2022-11-15T17:27:35.629Z,97150.89
2022-11-15T17:30:08.423Z,97151.65
2022-11-15T17:32:40.092Z,97155.88
2022-11-15T17:35:15.525Z,97154.95
2022-11-15T17:37:48.344Z,97154.95
2022-11-15T17:40:19.713Z,97154.90
2022-11-15T17:42:50.731Z,97154.83
2022-11-15T17:45:21.836Z,97154.89
2022-11-15T17:47:53.786Z,97149.36
2022-11-15T17:50:25.028Z,97150.56
2022-11-15T17:52:55.004Z,97149.77
2022-11-15T17:55:26.013Z,97148.18
2022-11-15T17:57:55.427Z,97149.23
2022-11-15T18:00:26.318Z,97150.38
2022-11-15T18:02:59.407Z,97148.02
2022-11-15T18:05:30.400Z,97148.96
2022-11-15T18:08:01.443Z,97147.55
2022-11-15T18:10:32.734Z,97142.22
2022-11-15T18:13:03.613Z,97141.77
2022-11-15T18:15:34.582Z,97140.36
2022-11-15T18:18:04.153Z,97140.66
2022-11-15T18:20:35.377Z,97134.65
2022-11-15T18:23:06.707Z,97132.42
2022-11-15T18:25:37.715Z,97133.42
2022-11-15T18:28:08.756Z,97131.00
2022-11-15T18:30:39.649Z,97130.73
2022-11-15T18:33:10.606Z,97128.67
2022-11-15T18:35:41.738Z,97122.16
2022-11-15T18:38:12.660Z,97127.48
2022-11-15T18:40:43.814Z,97126.48
2022-11-15T18:43:14.733Z,97123.41
2022-11-15T18:45:45.690Z,97127.52
2022-11-15T18:48:16.903Z,97122.53
2022-11-15T18:50:46.576Z,97121.34
2022-11-15T18:53:18.670Z,97112.91
2022-11-15T18:55:49.784Z,97112.42
2022-11-15T18:58:23.027Z,97108.69
2022-11-15T19:00:52.479Z,97107.52
2022-11-15T19:03:23.581Z,97107.79
2022-11-15T19:06:01.514Z,97110.24
2022-11-15T19:08:35.376Z,97108.85
2022-11-15T19:11:10.355Z,97106.88
2022-11-15T19:13:41.706Z,97111.68
2022-11-15T19:16:14.978Z,97114.30
2022-11-15T19:18:46.012Z,97117.63
2022-11-15T19:21:17.823Z,97118.27
2022-11-15T19:23:48.833Z,97117.77
2022-11-15T19:26:20.023Z,97114.20
2022-11-15T19:28:54.142Z,97110.98
2022-11-15T19:31:27.037Z,97099.20
2022-11-15T19:33:59.676Z,97102.15
2022-11-15T19:36:33.588Z,97101.91
2022-11-15T19:39:09.215Z,97103.27
2022-11-15T19:41:42.865Z,97098.36
2022-11-15T19:44:14.974Z,97092.58
2022-11-15T19:46:46.576Z,97090.04
2022-11-15T19:49:17.684Z,97089.97
2022-11-15T19:51:49.289Z,97090.98
2022-11-15T19:54:20.183Z,97095.25
2022-11-15T19:56:49.849Z,97094.73
2022-11-15T19:59:21.780Z,97093.48
2022-11-15T20:01:52.676Z,97090.83
2022-11-15T20:04:23.536Z,97088.45
2022-11-15T20:06:53.192Z,97085.14
2022-11-15T20:09:25.965Z,97081.69
2022-11-15T20:11:58.763Z,97083.35
2022-11-15T20:14:30.430Z,97078.90
2022-11-15T20:17:01.263Z,97076.13
2022-11-15T20:19:32.212Z,97073.51
2022-11-15T20:22:03.196Z,97067.69
2022-11-15T20:24:32.778Z,97063.80
2022-11-15T20:27:03.765Z,97057.67
2022-11-15T20:29:33.194Z,97058.64
2022-11-15T20:32:04.124Z,97056.86
2022-11-15T20:34:35.314Z,97054.86
2022-11-15T20:37:06.492Z,97053.88
2022-11-15T20:39:37.798Z,97055.09
2022-11-15T20:42:09.467Z,97053.69
2022-11-15T20:44:40.334Z,97047.33
2022-11-15T20:47:09.730Z,97041.10
2022-11-15T20:49:40.533Z,97041.83
2022-11-15T20:52:11.479Z,97039.81
2022-11-15T20:54:42.482Z,97034.82
2022-11-15T20:57:13.205Z,97034.85
2022-11-15T20:59:44.584Z,97032.24
2022-11-15T21:02:16.557Z,97033.23
2022-11-15T21:04:48.203Z,97034.75
2022-11-15T21:07:17.799Z,97030.20
2022-11-15T21:10:12.023Z,97033.55
2022-11-15T21:12:42.900Z,97027.84
2022-11-15T21:15:14.151Z,97023.61
2022-11-15T21:17:45.235Z,97017.45
2022-11-15T21:20:16.831Z,97012.90
2022-11-15T21:22:48.677Z,97008.83
2022-11-15T21:25:19.895Z,97006.49
2022-11-15T21:27:51.627Z,97001.27
2022-11-15T21:30:22.829Z,96997.20
2022-11-15T21:32:53.766Z,96997.64
2022-11-15T21:35:24.837Z,96992.61
2022-11-15T21:37:56.981Z,96984.20
2022-11-15T21:40:28.457Z,96984.05
2022-11-15T21:42:59.248Z,96980.40
2022-11-15T21:45:30.110Z,96976.70
2022-11-15T21:48:00.807Z,96977.17
2022-11-15T21:50:30.523Z,96976.66
2022-11-15T21:53:01.577Z,96982.23
2022-11-15T21:55:32.544Z,96982.15
2022-11-15T21:58:03.497Z,96983.55
2022-11-15T22:00:52.321Z,96982.55
2022-11-15T22:03:23.287Z,96984.89
2022-11-15T22:05:54.258Z,96989.06
2022-11-15T22:08:25.413Z,96990.16
2022-11-15T22:10:56.961Z,96991.36
2022-11-15T22:13:28.701Z,96993.77
2022-11-15T22:15:59.800Z,96992.00
2022-11-15T22:18:30.994Z,96987.83
2022-11-15T22:21:05.356Z,96980.09
2022-11-15T22:23:37.319Z,96971.02
2022-11-15T22:26:09.277Z,96969.14
2022-11-15T22:28:40.800Z,96968.50
2022-11-15T22:31:12.409Z,96962.26
2022-11-15T22:33:43.838Z,96962.46
2022-11-15T22:36:15.378Z,96959.45
2022-11-15T22:38:46.725Z,96958.89
2022-11-15T22:41:16.095Z,96959.67
2022-11-15T22:43:48.295Z,96951.36
2022-11-15T22:46:19.200Z,96947.27
2022-11-15T22:48:50.273Z,96947.38
2022-11-15T22:51:21.609Z,96943.13
2022-11-15T22:53:52.750Z,96942.80
2022-11-15T22:56:22.002Z,96944.61
2022-11-15T22:58:52.943Z,96942.29
2022-11-15T23:01:24.349Z,96937.70
2022-11-15T23:03:55.484Z,96938.77
2022-11-15T23:06:24.894Z,96937.36
2022-11-15T23:08:55.905Z,96934.48
2022-11-15T23:11:46.623Z,96931.59
2022-11-15T23:14:17.395Z,96929.14
2022-11-15T23:16:49.013Z,96934.73
2022-11-15T23:19:20.043Z,96934.04
2022-11-15T23:22:07.015Z,96931.59
2022-11-15T23:24:38.099Z,96933.40
2022-11-15T23:27:10.742Z,96929.60
2022-11-15T23:29:56.113Z,96922.55
2022-11-15T23:32:44.644Z,96916.54
2022-11-15T23:35:15.795Z,96915.67
2022-11-15T23:37:45.281Z,96910.08
2022-11-15T23:40:16.669Z,96904.65
2022-11-15T23:42:47.654Z,96896.54
2022-11-15T23:45:17.377Z,96890.79
2022-11-15T23:47:48.623Z,96888.10
2022-11-15T23:50:20.027Z,96881.27
2022-11-15T23:52:51.091Z,96881.95
2022-11-15T23:55:22.101Z,96876.43
2022-11-15T23:57:51.471Z,96873.55
